createdAt,value
2022-11-30T00:02:04.258Z,4.10
2022-11-30T00:04:32.457Z,4.10
2022-11-30T00:07:00.545Z,4.00
2022-11-30T00:09:28.640Z,4.10
2022-11-30T00:11:56.633Z,4.00
2022-11-30T00:14:25.978Z,4.10
2022-11-30T00:16:54.074Z,4.10
2022-11-30T00:19:22.154Z,4.10
2022-11-30T00:21:50.233Z,4.10
2022-11-30T00:24:18.151Z,4.00
2022-11-30T00:26:46.222Z,4.10
2022-11-30T00:29:14.248Z,4.00
2022-11-30T00:31:43.980Z,4.00
2022-11-30T00:34:12.266Z,4.00
2022-11-30T00:36:40.327Z,4.10
2022-11-30T00:39:08.310Z,4.10
2022-11-30T00:41:36.363Z,4.10
2022-11-30T00:44:04.356Z,4.10
2022-11-30T00:46:32.676Z,4.10
2022-11-30T00:49:02.032Z,4.00
2022-11-30T00:51:29.980Z,4.10
2022-11-30T00:53:58.159Z,4.10
2022-11-30T00:56:27.499Z,4.10
2022-11-30T00:58:55.472Z,4.10
2022-11-30T01:01:23.575Z,4.10
2022-11-30T01:03:51.835Z,4.10
2022-11-30T01:06:21.186Z,4.10
2022-11-30T01:08:49.306Z,4.10
2022-11-30T01:11:21.727Z,4.10
2022-11-30T01:13:49.791Z,4.10
2022-11-30T01:16:19.836Z,4.00
2022-11-30T01:18:48.680Z,4.10
2022-11-30T01:21:19.039Z,4.10
2022-11-30T01:23:49.317Z,4.00
2022-11-30T01:26:17.785Z,4.00
2022-11-30T01:28:50.566Z,4.00
2022-11-30T01:31:18.947Z,4.00
2022-11-30T01:33:50.704Z,4.00
2022-11-30T01:36:21.242Z,4.10
2022-11-30T01:38:53.247Z,4.10
2022-11-30T01:41:23.171Z,4.00
2022-11-30T01:43:52.631Z,4.00
2022-11-30T01:46:25.812Z,4.00
2022-11-30T01:49:14.427Z,4.00
2022-11-30T01:51:47.385Z,4.00
2022-11-30T01:54:19.477Z,4.00
2022-11-30T01:56:51.642Z,4.00
2022-11-30T01:59:23.126Z,4.00
2022-11-30T02:01:52.835Z,4.00
2022-11-30T02:04:25.307Z,4.00
2022-11-30T02:06:53.972Z,4.00
2022-11-30T02:09:24.895Z,4.00
2022-11-30T02:11:53.174Z,4.10
2022-11-30T02:14:34.947Z,4.00
2022-11-30T02:17:11.171Z,4.00
2022-11-30T02:20:12.425Z,4.00
2022-11-30T02:22:55.389Z,4.00
2022-11-30T02:25:30.202Z,4.00
2022-11-30T02:28:13.737Z,4.00
2022-11-30T02:30:47.879Z,4.00
2022-11-30T02:33:19.510Z,4.00
2022-11-30T02:35:55.067Z,4.00
2022-11-30T02:38:25.113Z,4.00
2022-11-30T02:40:53.270Z,3.90
2022-11-30T02:43:22.981Z,4.00
2022-11-30T02:46:00.641Z,3.90
2022-11-30T02:48:33.503Z,3.90
2022-11-30T02:51:04.903Z,3.90
2022-11-30T02:53:33.051Z,3.90
2022-11-30T02:56:01.152Z,3.90
2022-11-30T02:58:29.466Z,3.90
2022-11-30T03:00:59.040Z,3.90
2022-11-30T03:03:27.146Z,3.90
2022-11-30T03:05:55.206Z,3.90
2022-11-30T03:08:23.286Z,3.80
2022-11-30T03:10:51.258Z,3.80
2022-11-30T03:13:19.360Z,4.00
2022-11-30T03:15:47.845Z,3.80
2022-11-30T03:18:17.374Z,3.80
2022-11-30T03:20:46.008Z,3.80
2022-11-30T03:23:13.978Z,3.80
2022-11-30T03:25:42.045Z,3.80
2022-11-30T03:28:10.234Z,3.80
2022-11-30T03:30:38.224Z,3.80
2022-11-30T03:33:06.417Z,3.80
2022-11-30T03:35:35.805Z,3.80
2022-11-30T03:38:03.814Z,3.70
2022-11-30T03:40:31.773Z,3.70
2022-11-30T03:42:59.832Z,3.70
2022-11-30T03:45:27.999Z,3.70
2022-11-30T03:47:56.077Z,3.70
2022-11-30T03:50:24.214Z,3.70
2022-11-30T03:52:53.617Z,3.70
2022-11-30T03:55:21.672Z,3.80
2022-11-30T03:57:49.731Z,3.70
2022-11-30T04:00:18.680Z,3.70
2022-11-30T04:02:46.501Z,3.70
2022-11-30T04:05:14.493Z,3.70
2022-11-30T04:07:42.454Z,3.70
2022-11-30T04:10:13.162Z,3.70
2022-11-30T04:12:41.187Z,3.60
2022-11-30T04:15:10.515Z,3.60
2022-11-30T04:17:38.477Z,3.60
2022-11-30T04:20:07.997Z,3.60
2022-11-30T04:22:36.031Z,3.70
2022-11-30T04:25:04.049Z,3.70
2022-11-30T04:27:33.545Z,3.70
2022-11-30T04:30:01.536Z,3.60
2022-11-30T04:32:29.449Z,3.60
2022-11-30T04:34:57.394Z,3.60
2022-11-30T04:37:25.495Z,3.60
2022-11-30T04:39:53.518Z,3.60
2022-11-30T04:42:21.550Z,3.60
2022-11-30T04:44:50.947Z,3.60
2022-11-30T04:47:18.906Z,3.60
2022-11-30T04:49:46.987Z,3.60
2022-11-30T04:52:15.066Z,3.60
2022-11-30T04:54:43.034Z,3.60
2022-11-30T04:57:11.147Z,3.60
2022-11-30T04:59:39.174Z,3.60
2022-11-30T05:02:08.644Z,3.60
2022-11-30T05:04:36.990Z,3.60
2022-11-30T05:07:05.131Z,3.60
2022-11-30T05:09:33.335Z,3.60
2022-11-30T05:12:01.625Z,3.60
2022-11-30T05:14:29.600Z,3.60
2022-11-30T05:16:57.599Z,3.60
2022-11-30T05:19:27.090Z,3.60
2022-11-30T05:21:55.292Z,3.60
2022-11-30T05:24:23.266Z,3.60
2022-11-30T05:26:51.327Z,3.60
2022-11-30T05:29:19.432Z,3.60
2022-11-30T05:31:47.538Z,3.60
2022-11-30T05:34:15.778Z,3.70
2022-11-30T05:36:45.235Z,3.60
2022-11-30T05:39:13.295Z,3.60
2022-11-30T05:41:41.307Z,3.60
2022-11-30T05:44:10.025Z,3.60
2022-11-30T05:46:41.089Z,3.60
2022-11-30T05:49:09.374Z,3.60
2022-11-30T05:51:37.363Z,3.60
2022-11-30T05:54:06.944Z,3.60
2022-11-30T05:56:35.001Z,3.50
2022-11-30T05:59:02.962Z,3.50
2022-11-30T06:01:31.156Z,3.50
2022-11-30T06:03:59.171Z,3.50
2022-11-30T06:06:27.171Z,3.50
2022-11-30T06:08:55.670Z,3.50
2022-11-30T06:11:25.426Z,3.50
2022-11-30T06:13:53.716Z,3.50
2022-11-30T06:16:21.871Z,3.50
2022-11-30T06:18:49.954Z,3.50
2022-11-30T06:21:23.980Z,3.50
2022-11-30T06:23:52.725Z,3.50
2022-11-30T06:26:21.175Z,3.50
2022-11-30T06:28:50.614Z,3.50
2022-11-30T06:31:18.708Z,3.50
2022-11-30T06:33:46.768Z,3.50
2022-11-30T06:36:14.859Z,3.40
2022-11-30T06:38:43.050Z,3.40
2022-11-30T06:41:12.551Z,3.40
2022-11-30T06:43:41.233Z,3.40
2022-11-30T06:46:11.316Z,3.50
2022-11-30T06:48:39.747Z,3.50
2022-11-30T06:51:09.112Z,3.40
2022-11-30T06:53:38.203Z,3.50
2022-11-30T06:56:10.357Z,3.40
2022-11-30T06:58:39.712Z,3.40
2022-11-30T07:01:11.267Z,3.40
2022-11-30T07:03:39.789Z,3.40
2022-11-30T07:06:09.481Z,3.40
2022-11-30T07:08:38.090Z,3.40
2022-11-30T07:11:06.947Z,3.40
2022-11-30T07:13:35.041Z,3.40
2022-11-30T07:16:06.481Z,3.40
2022-11-30T07:18:36.254Z,3.40
2022-11-30T07:21:05.918Z,3.40
2022-11-30T07:23:55.980Z,3.50
2022-11-30T07:26:25.752Z,3.50
2022-11-30T07:28:58.451Z,3.50
2022-11-30T07:31:28.942Z,3.50
2022-11-30T07:33:59.496Z,3.50
2022-11-30T07:36:29.682Z,3.50
2022-11-30T07:38:57.758Z,3.50
2022-11-30T07:41:26.360Z,3.50
2022-11-30T07:43:54.539Z,3.50
2022-11-30T07:46:22.981Z,3.50
2022-11-30T07:48:51.131Z,3.50
2022-11-30T07:51:23.064Z,3.50
2022-11-30T07:53:51.300Z,3.50
2022-11-30T07:56:21.389Z,3.60
2022-11-30T07:58:50.973Z,3.60
2022-11-30T08:01:21.675Z,3.70
2022-11-30T08:03:50.590Z,3.70
2022-11-30T08:06:21.579Z,3.70
2022-11-30T08:08:50.828Z,3.70
2022-11-30T08:11:20.708Z,3.60
2022-11-30T08:13:49.139Z,3.70
2022-11-30T08:16:19.246Z,3.70
2022-11-30T08:18:48.055Z,3.70
2022-11-30T08:21:18.165Z,3.70
2022-11-30T08:23:49.536Z,3.70
2022-11-30T08:26:19.294Z,3.70
2022-11-30T08:28:48.663Z,3.70
2022-11-30T08:31:19.576Z,3.70
2022-11-30T08:33:48.168Z,3.80
2022-11-30T08:36:19.331Z,3.80
2022-11-30T08:38:49.476Z,3.90
2022-11-30T08:41:19.175Z,3.90
2022-11-30T08:43:47.592Z,3.90
2022-11-30T08:49:20.867Z,4.10
2022-11-30T08:54:42.949Z,4.10
2022-11-30T08:57:11.136Z,4.10
2022-11-30T08:59:39.330Z,4.20
2022-11-30T09:02:07.874Z,4.20
2022-11-30T09:04:35.998Z,4.20
2022-11-30T09:07:04.361Z,4.20
2022-11-30T09:09:32.671Z,4.20
2022-11-30T09:12:02.152Z,4.30
2022-11-30T09:14:30.391Z,4.40
2022-11-30T09:16:58.602Z,4.50
2022-11-30T09:19:26.705Z,4.40
2022-11-30T09:21:54.852Z,4.50
2022-11-30T09:24:22.944Z,4.50
2022-11-30T09:26:51.108Z,4.50
2022-11-30T09:29:20.585Z,4.60
2022-11-30T09:31:49.309Z,4.70
2022-11-30T09:34:17.785Z,4.70
2022-11-30T09:36:46.073Z,4.70
2022-11-30T09:39:14.091Z,4.80
2022-11-30T09:42:09.015Z,4.80
2022-11-30T09:44:47.950Z,5.00
2022-11-30T09:47:31.864Z,5.10
2022-11-30T09:50:05.355Z,5.10
2022-11-30T09:52:37.079Z,5.20
2022-11-30T09:55:10.568Z,5.20
2022-11-30T09:57:47.082Z,5.20
2022-11-30T10:00:21.656Z,5.20
2022-11-30T10:02:50.757Z,5.20
2022-11-30T10:05:21.654Z,5.20
2022-11-30T10:08:20.042Z,5.30
2022-11-30T10:10:56.450Z,5.30
2022-11-30T10:13:35.399Z,5.30
2022-11-30T10:16:16.584Z,5.40
2022-11-30T10:18:54.884Z,5.50
2022-11-30T10:21:41.106Z,5.50
2022-11-30T10:24:22.029Z,5.50
2022-11-30T10:26:57.356Z,5.50
2022-11-30T10:29:32.005Z,5.50
2022-11-30T10:32:03.824Z,5.50
2022-11-30T10:34:35.766Z,5.70
2022-11-30T10:37:16.375Z,5.80
2022-11-30T10:39:56.373Z,5.90
2022-11-30T10:42:30.874Z,5.90
2022-11-30T10:45:02.847Z,6.00
2022-11-30T10:47:37.087Z,6.00
2022-11-30T10:50:07.134Z,6.00
2022-11-30T10:52:43.071Z,6.10
2022-11-30T10:55:16.118Z,6.20
2022-11-30T10:57:45.228Z,6.30
2022-11-30T11:00:16.649Z,6.30
2022-11-30T11:02:46.998Z,6.30
2022-11-30T11:05:21.328Z,6.40
2022-11-30T11:08:01.218Z,6.40
2022-11-30T11:10:35.004Z,6.30
2022-11-30T11:13:03.379Z,6.30
2022-11-30T11:15:33.251Z,6.20
2022-11-30T11:18:23.845Z,6.20
2022-11-30T11:21:05.927Z,6.30
2022-11-30T11:23:37.507Z,6.30
2022-11-30T11:26:07.100Z,6.40
2022-11-30T11:28:37.267Z,6.40
2022-11-30T11:31:19.352Z,6.50
2022-11-30T11:33:55.964Z,6.40
2022-11-30T11:36:28.966Z,6.40
2022-11-30T11:38:57.913Z,6.50
2022-11-30T11:41:28.633Z,6.50
2022-11-30T11:44:03.149Z,6.50
2022-11-30T11:46:33.392Z,6.50
2022-11-30T11:49:05.050Z,6.50
2022-11-30T11:51:35.133Z,6.40
2022-11-30T11:54:08.019Z,6.40
2022-11-30T11:56:37.628Z,6.50
2022-11-30T11:59:15.248Z,6.50
2022-11-30T12:02:00.172Z,6.40
2022-11-30T12:04:47.391Z,6.50
2022-11-30T12:07:24.153Z,6.50
2022-11-30T12:10:09.615Z,6.50
2022-11-30T12:12:54.650Z,6.50
2022-11-30T12:15:27.678Z,6.60
2022-11-30T12:18:06.638Z,6.60
2022-11-30T12:20:53.721Z,6.60
2022-11-30T12:23:38.917Z,6.50
2022-11-30T12:26:16.964Z,6.50
2022-11-30T12:29:05.098Z,6.50
2022-11-30T12:31:44.838Z,6.60
2022-11-30T12:34:17.909Z,6.60
2022-11-30T12:36:57.691Z,6.60
2022-11-30T12:39:37.312Z,6.60
2022-11-30T12:42:11.462Z,6.60
2022-11-30T12:44:48.860Z,6.60
2022-11-30T12:47:29.094Z,6.60
2022-11-30T12:50:18.015Z,6.60
2022-11-30T12:52:56.853Z,6.60
2022-11-30T12:55:34.348Z,6.60
2022-11-30T12:58:12.012Z,6.60
2022-11-30T13:00:49.366Z,6.50
2022-11-30T13:03:40.234Z,6.60
2022-11-30T13:06:12.978Z,6.50
2022-11-30T13:08:51.609Z,6.50
2022-11-30T13:11:23.936Z,6.50
2022-11-30T13:13:55.960Z,6.50
2022-11-30T13:16:26.493Z,6.50
2022-11-30T13:18:59.834Z,6.40
2022-11-30T13:21:34.116Z,6.40
2022-11-30T13:24:09.914Z,6.40
2022-11-30T13:26:43.980Z,6.40
2022-11-30T13:29:25.623Z,6.30
2022-11-30T13:31:58.062Z,6.40
2022-11-30T13:34:28.141Z,6.30
2022-11-30T13:37:07.852Z,6.20
2022-11-30T13:39:47.377Z,6.20
2022-11-30T13:42:39.143Z,6.10
2022-11-30T13:45:34.495Z,6.00
2022-11-30T13:48:19.798Z,5.90
2022-11-30T13:50:49.880Z,5.80
2022-11-30T13:53:24.263Z,5.80
2022-11-30T13:55:58.128Z,5.60
2022-11-30T13:58:26.959Z,5.60
2022-11-30T14:01:17.552Z,5.40
2022-11-30T14:03:47.996Z,5.30
2022-11-30T14:06:48.287Z,5.20
2022-11-30T14:09:16.914Z,5.10
2022-11-30T14:11:46.830Z,5.00
2022-11-30T14:14:46.858Z,4.80
2022-11-30T14:17:24.980Z,4.70
2022-11-30T14:19:55.000Z,4.50
2022-11-30T14:22:24.005Z,4.50
2022-11-30T14:24:52.172Z,4.40
2022-11-30T14:27:24.455Z,4.30
2022-11-30T14:29:56.060Z,4.20
2022-11-30T14:32:36.284Z,4.10
2022-11-30T14:35:10.392Z,4.00
2022-11-30T14:37:44.111Z,4.00
2022-11-30T14:40:19.336Z,3.90
2022-11-30T14:42:54.037Z,3.80
2022-11-30T14:45:24.886Z,3.80
2022-11-30T14:47:56.966Z,3.80
2022-11-30T14:50:51.082Z,3.70
2022-11-30T14:53:29.530Z,3.60
2022-11-30T14:56:03.340Z,3.30
2022-11-30T14:58:39.114Z,3.20
2022-11-30T15:01:18.262Z,3.10
2022-11-30T15:03:47.884Z,3.00
2022-11-30T15:06:18.428Z,2.80
2022-11-30T15:08:49.897Z,2.70
2022-11-30T15:11:19.557Z,2.70
2022-11-30T15:13:50.867Z,2.60
2022-11-30T15:16:22.249Z,2.50
2022-11-30T15:18:50.938Z,2.40
2022-11-30T15:21:23.571Z,2.30
2022-11-30T15:23:52.004Z,2.30
2022-11-30T15:26:25.804Z,2.30
2022-11-30T15:28:59.665Z,2.30
2022-11-30T15:31:33.571Z,2.30
2022-11-30T15:34:01.710Z,2.40
2022-11-30T15:36:35.149Z,2.30
2022-11-30T15:39:06.606Z,2.20
2022-11-30T15:41:36.114Z,2.20
2022-11-30T15:44:05.791Z,2.20
2022-11-30T15:46:39.981Z,2.10
2022-11-30T15:49:24.486Z,2.10
2022-11-30T15:52:04.297Z,2.00
2022-11-30T15:54:46.402Z,2.00
2022-11-30T15:57:15.145Z,1.90
2022-11-30T16:02:28.588Z,1.90
2022-11-30T16:05:22.358Z,1.80
2022-11-30T16:07:53.072Z,1.80
2022-11-30T16:10:23.503Z,1.80
2022-11-30T16:12:52.914Z,1.70
2022-11-30T16:15:23.309Z,1.70
2022-11-30T16:17:54.398Z,1.70
2022-11-30T16:20:22.633Z,1.70
2022-11-30T16:22:51.018Z,1.70
2022-11-30T16:25:21.739Z,1.60
2022-11-30T16:27:50.517Z,1.60
2022-11-30T16:30:21.631Z,1.60
2022-11-30T16:32:50.431Z,1.60
2022-11-30T16:35:22.765Z,1.60
2022-11-30T16:37:51.490Z,1.60
2022-11-30T16:40:21.198Z,1.60
2022-11-30T16:42:51.059Z,1.60
2022-11-30T16:45:21.471Z,1.50
2022-11-30T16:47:49.525Z,1.50
2022-11-30T16:50:19.459Z,1.50
2022-11-30T16:52:47.983Z,1.50
2022-11-30T16:55:17.836Z,1.40
2022-11-30T16:57:46.143Z,1.40
2022-11-30T17:00:16.835Z,1.30
2022-11-30T17:02:56.037Z,1.30
2022-11-30T17:05:26.322Z,1.30
2022-11-30T17:07:54.637Z,1.30
2022-11-30T17:10:23.157Z,1.20
2022-11-30T17:12:51.168Z,1.30
2022-11-30T17:15:21.366Z,1.30
2022-11-30T17:17:49.484Z,1.30
2022-11-30T17:20:18.710Z,1.20
2022-11-30T17:22:47.957Z,1.20
2022-11-30T17:25:17.756Z,1.20
2022-11-30T17:27:45.891Z,1.20
2022-11-30T17:30:15.975Z,1.20
2022-11-30T17:32:44.210Z,1.20
2022-11-30T17:35:12.923Z,1.20
2022-11-30T17:37:41.019Z,1.20
2022-11-30T17:40:14.432Z,1.20
2022-11-30T17:42:43.482Z,1.20
2022-11-30T17:45:12.070Z,1.20
2022-11-30T17:47:40.111Z,1.20
2022-11-30T17:50:10.066Z,1.20
2022-11-30T17:52:38.116Z,1.20
2022-11-30T17:55:07.063Z,1.20
2022-11-30T17:57:38.450Z,1.30
2022-11-30T18:00:08.460Z,1.30
2022-11-30T18:02:36.587Z,1.30
2022-11-30T18:05:04.786Z,1.30
2022-11-30T18:07:32.780Z,1.30
2022-11-30T18:10:01.880Z,1.30
2022-11-30T18:12:29.914Z,1.30
2022-11-30T18:14:59.336Z,1.30
2022-11-30T18:17:27.637Z,1.30
2022-11-30T18:19:55.614Z,1.30
2022-11-30T18:22:23.635Z,1.30
2022-11-30T18:24:51.608Z,1.30
2022-11-30T18:27:19.740Z,1.30
2022-11-30T18:29:47.908Z,1.30
2022-11-30T18:32:17.240Z,1.30
2022-11-30T18:34:49.284Z,1.40
2022-11-30T18:37:17.887Z,1.40
2022-11-30T18:39:45.929Z,1.40
2022-11-30T18:42:13.964Z,1.30
2022-11-30T18:44:42.007Z,1.30
2022-11-30T18:47:10.027Z,1.40
2022-11-30T18:49:39.521Z,1.40
2022-11-30T18:52:07.800Z,1.30
2022-11-30T18:54:36.287Z,1.40
2022-11-30T18:57:04.594Z,1.40
2022-11-30T18:59:32.668Z,1.40
2022-11-30T19:02:00.754Z,1.40
2022-11-30T19:04:29.064Z,1.40
2022-11-30T19:06:58.857Z,1.40
2022-11-30T19:09:27.195Z,1.40
2022-11-30T19:11:55.963Z,1.30
2022-11-30T19:14:23.928Z,1.40
2022-11-30T19:16:52.126Z,1.40
2022-11-30T19:19:21.664Z,1.50
2022-11-30T19:21:49.893Z,1.30
2022-11-30T19:24:19.295Z,1.30
2022-11-30T19:26:47.339Z,1.30
2022-11-30T19:29:15.596Z,1.30
2022-11-30T19:31:43.702Z,1.30
2022-11-30T19:34:13.533Z,1.20
2022-11-30T19:36:42.078Z,1.20
2022-11-30T19:39:11.422Z,1.20
2022-11-30T19:41:41.039Z,1.30
2022-11-30T19:44:13.936Z,1.30
2022-11-30T19:46:43.530Z,1.20
2022-11-30T19:49:12.103Z,1.20
2022-11-30T19:51:40.155Z,1.20
2022-11-30T19:54:08.461Z,1.20
2022-11-30T19:56:39.075Z,1.20
2022-11-30T19:59:08.531Z,1.20
2022-11-30T20:01:37.163Z,1.20
2022-11-30T20:04:06.120Z,1.20
2022-11-30T20:06:36.026Z,1.20
2022-11-30T20:09:05.579Z,1.20
2022-11-30T20:11:34.133Z,1.20
2022-11-30T20:14:02.110Z,1.20
2022-11-30T20:16:31.901Z,1.20
2022-11-30T20:19:01.785Z,1.30
2022-11-30T20:21:31.968Z,1.30
2022-11-30T20:24:01.851Z,1.30
2022-11-30T20:26:31.665Z,1.20
2022-11-30T20:29:01.277Z,1.20
2022-11-30T20:31:32.301Z,1.20
2022-11-30T20:34:00.709Z,1.10
2022-11-30T20:36:29.751Z,1.10
2022-11-30T20:38:59.163Z,1.10
2022-11-30T20:41:27.752Z,1.10
2022-11-30T20:43:56.661Z,1.10
2022-11-30T20:46:27.316Z,1.00
2022-11-30T20:48:57.619Z,1.00
2022-11-30T20:51:32.506Z,1.00
2022-11-30T20:54:02.675Z,1.00
2022-11-30T20:56:31.617Z,1.00
2022-11-30T20:59:03.899Z,1.00
2022-11-30T21:01:32.139Z,1.00
2022-11-30T21:04:01.894Z,1.10
2022-11-30T21:06:30.852Z,1.00
2022-11-30T21:08:59.688Z,1.00
2022-11-30T21:11:28.871Z,1.00
2022-11-30T21:13:57.826Z,1.00
2022-11-30T21:16:29.018Z,1.00
2022-11-30T21:18:59.660Z,1.00
2022-11-30T21:21:31.556Z,1.00
2022-11-30T21:24:01.251Z,1.00
2022-11-30T21:26:30.761Z,1.00
2022-11-30T21:29:02.598Z,1.00
2022-11-30T21:31:31.451Z,1.00
2022-11-30T21:33:59.580Z,1.00
2022-11-30T21:36:29.551Z,1.00
2022-11-30T21:39:04.868Z,1.00
2022-11-30T21:41:33.797Z,1.10
2022-11-30T21:44:01.834Z,1.10
2022-11-30T21:46:30.022Z,1.10
2022-11-30T21:48:58.237Z,1.20
2022-11-30T21:51:29.443Z,1.20
2022-11-30T21:53:59.274Z,1.20
2022-11-30T21:56:28.989Z,1.10
2022-11-30T21:58:57.901Z,1.20
2022-11-30T22:01:28.771Z,1.20
2022-11-30T22:03:58.215Z,1.20
2022-11-30T22:06:29.107Z,1.10
2022-11-30T22:08:57.922Z,1.10
2022-11-30T22:11:26.050Z,1.10
2022-11-30T22:13:55.313Z,1.10
2022-11-30T22:16:25.139Z,1.00
2022-11-30T22:18:54.454Z,1.00
2022-11-30T22:21:23.680Z,1.00
2022-11-30T22:23:56.366Z,1.00
2022-11-30T22:26:26.244Z,1.00
2022-11-30T22:28:55.613Z,0.90
2022-11-30T22:31:25.855Z,0.90
2022-11-30T22:33:54.317Z,0.90
2022-11-30T22:36:24.463Z,0.80
2022-11-30T22:38:57.560Z,0.80
2022-11-30T22:41:26.709Z,0.90
2022-11-30T22:43:56.046Z,0.90
2022-11-30T22:46:26.667Z,0.90
2022-11-30T22:48:55.155Z,0.90
2022-11-30T22:51:25.157Z,0.80
2022-11-30T22:53:55.347Z,1.00
2022-11-30T22:56:25.201Z,0.80
2022-11-30T22:58:54.991Z,0.80
2022-11-30T23:01:25.006Z,0.80
2022-11-30T23:03:56.237Z,0.80
2022-11-30T23:06:25.698Z,0.80
2022-11-30T23:08:55.286Z,0.80
2022-11-30T23:11:26.359Z,0.80
2022-11-30T23:13:54.564Z,0.80
2022-11-30T23:16:22.935Z,0.80
2022-11-30T23:18:53.985Z,0.80
2022-11-30T23:21:24.265Z,0.80
2022-11-30T23:23:52.870Z,0.80
2022-11-30T23:26:24.445Z,0.80
2022-11-30T23:28:54.062Z,0.80
2022-11-30T23:31:33.737Z,0.80
2022-11-30T23:34:05.305Z,0.80
2022-11-30T23:36:34.438Z,0.80
2022-11-30T23:39:04.672Z,0.90
2022-11-30T23:41:34.325Z,0.80
2022-11-30T23:44:02.940Z,0.80
2022-11-30T23:46:31.430Z,0.90
2022-11-30T23:48:59.661Z,0.90
2022-11-30T23:51:27.911Z,0.70
2022-11-30T23:53:56.090Z,0.80
2022-11-30T23:56:24.967Z,0.70
2022-11-30T23:58:54.462Z,0.80
